sensor_id;sensor_type;location;lat;lon;timestamp;temperature;humidity
22568;DHT22;11450;50.818;4.382;2022-09-09T00:01:10;16.30;99.90
22568;DHT22;11450;50.818;4.382;2022-09-09T00:03:44;16.20;99.90
22568;DHT22;11450;50.818;4.382;2022-09-09T00:06:23;16.10;99.90
22568;DHT22;11450;50.818;4.382;2022-09-09T00:09:00;16.10;99.90
22568;DHT22;11450;50.818;4.382;2022-09-09T00:17:31;16.10;99.90
22568;DHT22;11450;50.818;4.382;2022-09-09T00:20:13;16.10;99.90
22568;DHT22;11450;50.818;4.382;2022-09-09T00:23:00;16.10;99.90
22568;DHT22;11450;50.818;4.382;2022-09-09T00:25:59;16.00;99.90
22568;DHT22;11450;50.818;4.382;2022-09-09T00:28:33;15.90;99.90
22568;DHT22;11450;50.818;4.382;2022-09-09T00:31:12;16.00;99.90
22568;DHT22;11450;50.818;4.382;2022-09-09T00:33:38;16.00;99.90
22568;DHT22;11450;50.818;4.382;2022-09-09T00:36:12;16.10;99.90
22568;DHT22;11450;50.818;4.382;2022-09-09T00:38:51;15.90;99.90
22568;DHT22;11450;50.818;4.382;2022-09-09T00:41:57;16.00;99.90
22568;DHT22;11450;50.818;4.382;2022-09-09T00:44:35;16.00;99.90
22568;DHT22;11450;50.818;4.382;2022-09-09T00:50:05;16.00;99.90
22568;DHT22;11450;50.818;4.382;2022-09-09T00:52:47;16.00;99.90
22568;DHT22;11450;50.818;4.382;2022-09-09T00:55:35;16.10;99.90
22568;DHT22;11450;50.818;4.382;2022-09-09T00:58:02;16.10;99.90
22568;DHT22;11450;50.818;4.382;2022-09-09T01:00:35;16.20;99.90
22568;DHT22;11450;50.818;4.382;2022-09-09T01:11:52;16.10;99.90
22568;DHT22;11450;50.818;4.382;2022-09-09T01:22:49;16.20;99.90
22568;DHT22;11450;50.818;4.382;2022-09-09T01:28:10;16.00;99.90
22568;DHT22;11450;50.818;4.382;2022-09-09T01:30:40;16.20;99.90
22568;DHT22;11450;50.818;4.382;2022-09-09T01:33:16;16.20;99.90
22568;DHT22;11450;50.818;4.382;2022-09-09T01:35:59;16.10;99.90
22568;DHT22;11450;50.818;4.382;2022-09-09T01:38:28;16.10;99.90
22568;DHT22;11450;50.818;4.382;2022-09-09T01:40:55;16.00;99.90
22568;DHT22;11450;50.818;4.382;2022-09-09T01:43:21;16.00;99.90
22568;DHT22;11450;50.818;4.382;2022-09-09T01:45:50;16.10;99.90
22568;DHT22;11450;50.818;4.382;2022-09-09T01:48:24;16.10;99.90
22568;DHT22;11450;50.818;4.382;2022-09-09T01:50:50;16.10;99.90
22568;DHT22;11450;50.818;4.382;2022-09-09T01:53:17;16.10;99.90
22568;DHT22;11450;50.818;4.382;2022-09-09T02:01:27;16.10;99.90
22568;DHT22;11450;50.818;4.382;2022-09-09T02:04:30;16.10;99.90
22568;DHT22;11450;50.818;4.382;2022-09-09T02:06:56;16.20;99.90
22568;DHT22;11450;50.818;4.382;2022-09-09T02:09:24;16.10;99.90
22568;DHT22;11450;50.818;4.382;2022-09-09T02:11:57;16.00;99.90
22568;DHT22;11450;50.818;4.382;2022-09-09T02:14:28;16.10;99.90
22568;DHT22;11450;50.818;4.382;2022-09-09T02:17:01;16.10;99.90
22568;DHT22;11450;50.818;4.382;2022-09-09T02:19:32;16.20;99.90
22568;DHT22;11450;50.818;4.382;2022-09-09T02:22:01;16.20;99.90
22568;DHT22;11450;50.818;4.382;2022-09-09T02:24:29;16.20;99.90
22568;DHT22;11450;50.818;4.382;2022-09-09T02:26:58;16.00;99.90
22568;DHT22;11450;50.818;4.382;2022-09-09T02:29:33;16.00;99.90
22568;DHT22;11450;50.818;4.382;2022-09-09T02:32:06;15.90;99.90
22568;DHT22;11450;50.818;4.382;2022-09-09T02:34:36;16.00;99.90
22568;DHT22;11450;50.818;4.382;2022-09-09T02:37:04;16.10;99.90
22568;DHT22;11450;50.818;4.382;2022-09-09T02:39:31;16.00;99.90
22568;DHT22;11450;50.818;4.382;2022-09-09T02:41:56;16.10;99.90
22568;DHT22;11450;50.818;4.382;2022-09-09T02:44:22;16.10;99.90
22568;DHT22;11450;50.818;4.382;2022-09-09T02:50:13;16.00;99.90
22568;DHT22;11450;50.818;4.382;2022-09-09T02:52:59;16.10;99.90
22568;DHT22;11450;50.818;4.382;2022-09-09T02:58:20;16.00;99.90
22568;DHT22;11450;50.818;4.382;2022-09-09T03:00:49;16.10;99.90
22568;DHT22;11450;50.818;4.382;2022-09-09T03:03:16;16.00;99.90
22568;DHT22;11450;50.818;4.382;2022-09-09T03:05:43;16.00;99.90
22568;DHT22;11450;50.818;4.382;2022-09-09T03:08:09;15.90;99.90
22568;DHT22;11450;50.818;4.382;2022-09-09T03:10:35;15.90;99.90
22568;DHT22;11450;50.818;4.382;2022-09-09T03:13:02;16.00;99.90
22568;DHT22;11450;50.818;4.382;2022-09-09T03:15:29;15.90;99.90
22568;DHT22;11450;50.818;4.382;2022-09-09T03:17:57;15.90;99.90
22568;DHT22;11450;50.818;4.382;2022-09-09T03:20:24;15.90;99.90
22568;DHT22;11450;50.818;4.382;2022-09-09T03:22:52;16.00;99.90
22568;DHT22;11450;50.818;4.382;2022-09-09T03:25:21;16.10;99.90
22568;DHT22;11450;50.818;4.382;2022-09-09T03:27:50;16.00;99.90
22568;DHT22;11450;50.818;4.382;2022-09-09T03:30:20;16.00;99.90
22568;DHT22;11450;50.818;4.382;2022-09-09T03:32:56;16.00;99.90
22568;DHT22;11450;50.818;4.382;2022-09-09T03:35:22;15.90;99.90
22568;DHT22;11450;50.818;4.382;2022-09-09T03:37:48;15.90;99.90
22568;DHT22;11450;50.818;4.382;2022-09-09T03:40:14;15.90;99.90
22568;DHT22;11450;50.818;4.382;2022-09-09T03:42:39;15.90;99.90
22568;DHT22;11450;50.818;4.382;2022-09-09T03:45:07;15.80;99.90
22568;DHT22;11450;50.818;4.382;2022-09-09T03:47:43;15.80;99.90
22568;DHT22;11450;50.818;4.382;2022-09-09T03:50:12;15.80;99.90
22568;DHT22;11450;50.818;4.382;2022-09-09T03:52:39;15.80;99.90
22568;DHT22;11450;50.818;4.382;2022-09-09T03:55:06;15.90;99.90
22568;DHT22;11450;50.818;4.382;2022-09-09T03:57:33;15.80;99.90
22568;DHT22;11450;50.818;4.382;2022-09-09T04:00:04;15.80;99.90
22568;DHT22;11450;50.818;4.382;2022-09-09T04:02:30;15.80;99.90
22568;DHT22;11450;50.818;4.382;2022-09-09T04:05:08;15.80;99.90
22568;DHT22;11450;50.818;4.382;2022-09-09T04:07:34;15.80;99.90
22568;DHT22;11450;50.818;4.382;2022-09-09T04:10:08;15.80;99.90
22568;DHT22;11450;50.818;4.382;2022-09-09T04:12:38;15.80;99.90
22568;DHT22;11450;50.818;4.382;2022-09-09T04:15:04;15.80;99.90
22568;DHT22;11450;50.818;4.382;2022-09-09T04:17:29;15.90;99.90
22568;DHT22;11450;50.818;4.382;2022-09-09T04:19:56;15.90;99.90
22568;DHT22;11450;50.818;4.382;2022-09-09T04:22:22;15.90;99.90
22568;DHT22;11450;50.818;4.382;2022-09-09T04:24:48;15.90;99.90
22568;DHT22;11450;50.818;4.382;2022-09-09T04:27:18;15.90;99.90
22568;DHT22;11450;50.818;4.382;2022-09-09T04:29:51;15.90;99.90
22568;DHT22;11450;50.818;4.382;2022-09-09T04:32:18;15.80;99.90
22568;DHT22;11450;50.818;4.382;2022-09-09T04:34:44;15.80;99.90
22568;DHT22;11450;50.818;4.382;2022-09-09T04:37:10;15.70;99.90
22568;DHT22;11450;50.818;4.382;2022-09-09T04:39:35;15.70;99.90
22568;DHT22;11450;50.818;4.382;2022-09-09T04:42:01;15.70;99.90
22568;DHT22;11450;50.818;4.382;2022-09-09T04:44:27;15.70;99.90
22568;DHT22;11450;50.818;4.382;2022-09-09T04:46:53;15.70;99.90
22568;DHT22;11450;50.818;4.382;2022-09-09T04:49:27;15.60;99.90
22568;DHT22;11450;50.818;4.382;2022-09-09T04:51:53;15.70;99.90
22568;DHT22;11450;50.818;4.382;2022-09-09T04:54:19;15.70;99.90
22568;DHT22;11450;50.818;4.382;2022-09-09T04:56:44;15.70;99.90
22568;DHT22;11450;50.818;4.382;2022-09-09T04:59:10;15.70;99.90
22568;DHT22;11450;50.818;4.382;2022-09-09T05:01:36;15.70;99.90
22568;DHT22;11450;50.818;4.382;2022-09-09T05:04:02;15.70;99.90
22568;DHT22;11450;50.818;4.382;2022-09-09T05:06:28;15.70;99.90
22568;DHT22;11450;50.818;4.382;2022-09-09T05:08:56;15.70;99.90
22568;DHT22;11450;50.818;4.382;2022-09-09T05:11:24;15.70;99.90
22568;DHT22;11450;50.818;4.382;2022-09-09T05:13:51;15.80;99.90
22568;DHT22;11450;50.818;4.382;2022-09-09T05:16:18;15.80;99.90
22568;DHT22;11450;50.818;4.382;2022-09-09T05:18:44;15.80;99.90
22568;DHT22;11450;50.818;4.382;2022-09-09T05:21:12;15.80;99.90
22568;DHT22;11450;50.818;4.382;2022-09-09T05:23:38;15.80;99.90
22568;DHT22;11450;50.818;4.382;2022-09-09T05:26:04;15.80;99.90
22568;DHT22;11450;50.818;4.382;2022-09-09T05:28:31;15.80;99.90
22568;DHT22;11450;50.818;4.382;2022-09-09T05:31:00;15.80;99.90
22568;DHT22;11450;50.818;4.382;2022-09-09T05:33:29;15.60;99.90
22568;DHT22;11450;50.818;4.382;2022-09-09T05:35:59;15.80;99.90
22568;DHT22;11450;50.818;4.382;2022-09-09T05:38:27;15.80;99.90
22568;DHT22;11450;50.818;4.382;2022-09-09T05:40:53;15.90;99.90
22568;DHT22;11450;50.818;4.382;2022-09-09T05:43:19;15.90;99.90
22568;DHT22;11450;50.818;4.382;2022-09-09T05:45:46;15.90;99.90
22568;DHT22;11450;50.818;4.382;2022-09-09T05:48:15;15.80;99.90
22568;DHT22;11450;50.818;4.382;2022-09-09T05:50:53;15.80;99.90
22568;DHT22;11450;50.818;4.382;2022-09-09T05:53:19;15.80;99.90
22568;DHT22;11450;50.818;4.382;2022-09-09T05:55:45;15.90;99.90
22568;DHT22;11450;50.818;4.382;2022-09-09T05:58:11;15.90;99.90
22568;DHT22;11450;50.818;4.382;2022-09-09T06:00:37;16.00;99.90
22568;DHT22;11450;50.818;4.382;2022-09-09T06:03:03;16.10;99.90
22568;DHT22;11450;50.818;4.382;2022-09-09T06:05:35;16.10;99.90
22568;DHT22;11450;50.818;4.382;2022-09-09T06:08:01;16.20;99.90
22568;DHT22;11450;50.818;4.382;2022-09-09T06:10:26;16.10;99.90
22568;DHT22;11450;50.818;4.382;2022-09-09T06:12:54;16.00;99.90
22568;DHT22;11450;50.818;4.382;2022-09-09T06:15:19;16.00;99.90
22568;DHT22;11450;50.818;4.382;2022-09-09T06:17:45;16.00;99.90
22568;DHT22;11450;50.818;4.382;2022-09-09T06:20:33;16.00;99.90
22568;DHT22;11450;50.818;4.382;2022-09-09T06:22:59;16.10;99.90
22568;DHT22;11450;50.818;4.382;2022-09-09T06:25:25;16.20;99.90
22568;DHT22;11450;50.818;4.382;2022-09-09T06:27:50;16.20;99.90
22568;DHT22;11450;50.818;4.382;2022-09-09T06:30:16;16.20;99.90
22568;DHT22;11450;50.818;4.382;2022-09-09T06:32:42;16.40;99.90
22568;DHT22;11450;50.818;4.382;2022-09-09T06:35:08;16.40;99.90
22568;DHT22;11450;50.818;4.382;2022-09-09T06:37:34;16.40;99.90
22568;DHT22;11450;50.818;4.382;2022-09-09T06:40:02;16.50;99.90
22568;DHT22;11450;50.818;4.382;2022-09-09T06:42:28;16.50;99.90
22568;DHT22;11450;50.818;4.382;2022-09-09T06:44:53;16.40;99.90
22568;DHT22;11450;50.818;4.382;2022-09-09T06:47:19;16.50;99.90
22568;DHT22;11450;50.818;4.382;2022-09-09T06:50:00;16.50;99.90
22568;DHT22;11450;50.818;4.382;2022-09-09T06:52:26;16.50;99.90
22568;DHT22;11450;50.818;4.382;2022-09-09T06:54:52;16.40;99.90
22568;DHT22;11450;50.818;4.382;2022-09-09T06:57:19;16.50;99.90
22568;DHT22;11450;50.818;4.382;2022-09-09T06:59:44;16.50;99.90
22568;DHT22;11450;50.818;4.382;2022-09-09T07:02:10;16.40;99.90
22568;DHT22;11450;50.818;4.382;2022-09-09T07:04:36;16.50;99.90
22568;DHT22;11450;50.818;4.382;2022-09-09T07:07:02;16.50;99.90
22568;DHT22;11450;50.818;4.382;2022-09-09T07:09:28;16.70;99.90
22568;DHT22;11450;50.818;4.382;2022-09-09T07:11:55;16.70;99.90
22568;DHT22;11450;50.818;4.382;2022-09-09T07:14:21;16.60;99.90
22568;DHT22;11450;50.818;4.382;2022-09-09T07:16:47;16.60;99.90
22568;DHT22;11450;50.818;4.382;2022-09-09T07:19:13;16.50;99.90
22568;DHT22;11450;50.818;4.382;2022-09-09T07:21:41;16.50;99.90
22568;DHT22;11450;50.818;4.382;2022-09-09T07:24:07;16.60;99.90
22568;DHT22;11450;50.818;4.382;2022-09-09T07:26:36;16.60;99.90
22568;DHT22;11450;50.818;4.382;2022-09-09T07:29:02;16.60;99.90
22568;DHT22;11450;50.818;4.382;2022-09-09T07:31:31;16.60;99.90
22568;DHT22;11450;50.818;4.382;2022-09-09T07:33:58;16.70;99.90
22568;DHT22;11450;50.818;4.382;2022-09-09T07:36:38;16.70;99.90
22568;DHT22;11450;50.818;4.382;2022-09-09T07:39:13;16.70;99.90
22568;DHT22;11450;50.818;4.382;2022-09-09T07:41:43;16.60;99.90
22568;DHT22;11450;50.818;4.382;2022-09-09T07:44:12;16.60;99.90
22568;DHT22;11450;50.818;4.382;2022-09-09T07:46:38;16.60;99.90
22568;DHT22;11450;50.818;4.382;2022-09-09T07:49:32;16.50;99.90
22568;DHT22;11450;50.818;4.382;2022-09-09T07:52:00;16.50;99.90
22568;DHT22;11450;50.818;4.382;2022-09-09T07:54:26;16.40;99.90
22568;DHT22;11450;50.818;4.382;2022-09-09T07:56:52;16.50;99.90
22568;DHT22;11450;50.818;4.382;2022-09-09T07:59:18;16.40;99.90
22568;DHT22;11450;50.818;4.382;2022-09-09T08:01:46;16.40;99.90
22568;DHT22;11450;50.818;4.382;2022-09-09T08:04:18;16.40;99.90
22568;DHT22;11450;50.818;4.382;2022-09-09T08:06:47;16.40;99.90
22568;DHT22;11450;50.818;4.382;2022-09-09T08:09:13;16.50;99.90
22568;DHT22;11450;50.818;4.382;2022-09-09T08:11:39;16.50;99.90
22568;DHT22;11450;50.818;4.382;2022-09-09T08:14:07;16.70;99.90
22568;DHT22;11450;50.818;4.382;2022-09-09T08:16:41;16.90;99.90
22568;DHT22;11450;50.818;4.382;2022-09-09T08:19:08;17.00;99.90
22568;DHT22;11450;50.818;4.382;2022-09-09T08:21:53;17.10;99.90
22568;DHT22;11450;50.818;4.382;2022-09-09T08:24:19;17.10;99.90
22568;DHT22;11450;50.818;4.382;2022-09-09T08:26:47;17.20;99.90
22568;DHT22;11450;50.818;4.382;2022-09-09T08:29:15;17.20;99.90
22568;DHT22;11450;50.818;4.382;2022-09-09T08:31:48;17.20;99.90
22568;DHT22;11450;50.818;4.382;2022-09-09T08:34:15;17.30;99.90
22568;DHT22;11450;50.818;4.382;2022-09-09T08:36:44;17.10;99.90
22568;DHT22;11450;50.818;4.382;2022-09-09T08:39:13;17.10;99.90
22568;DHT22;11450;50.818;4.382;2022-09-09T08:48:24;17.20;99.90
22568;DHT22;11450;50.818;4.382;2022-09-09T08:50:55;17.10;99.90
22568;DHT22;11450;50.818;4.382;2022-09-09T08:53:29;16.90;99.90
22568;DHT22;11450;50.818;4.382;2022-09-09T08:56:10;17.00;99.90
22568;DHT22;11450;50.818;4.382;2022-09-09T08:58:46;17.00;99.90
22568;DHT22;11450;50.818;4.382;2022-09-09T09:04:14;17.00;99.90
22568;DHT22;11450;50.818;4.382;2022-09-09T09:06:47;16.90;99.90
22568;DHT22;11450;50.818;4.382;2022-09-09T09:09:25;16.90;99.90
22568;DHT22;11450;50.818;4.382;2022-09-09T09:12:01;16.90;99.90
22568;DHT22;11450;50.818;4.382;2022-09-09T09:14:33;16.90;99.90
22568;DHT22;11450;50.818;4.382;2022-09-09T09:17:20;16.90;99.90
22568;DHT22;11450;50.818;4.382;2022-09-09T09:19:49;16.80;99.90
22568;DHT22;11450;50.818;4.382;2022-09-09T09:22:31;16.80;99.90
22568;DHT22;11450;50.818;4.382;2022-09-09T09:25:27;16.70;99.90
22568;DHT22;11450;50.818;4.382;2022-09-09T09:28:18;16.70;99.90
22568;DHT22;11450;50.818;4.382;2022-09-09T09:30:58;16.70;99.90
22568;DHT22;11450;50.818;4.382;2022-09-09T09:33:28;16.70;99.90
22568;DHT22;11450;50.818;4.382;2022-09-09T09:35:58;16.60;99.90
22568;DHT22;11450;50.818;4.382;2022-09-09T09:38:27;16.60;99.90
22568;DHT22;11450;50.818;4.382;2022-09-09T09:40:58;16.60;99.90
22568;DHT22;11450;50.818;4.382;2022-09-09T09:43:30;16.50;99.90
22568;DHT22;11450;50.818;4.382;2022-09-09T09:45:58;16.50;99.90
22568;DHT22;11450;50.818;4.382;2022-09-09T09:48:26;16.40;99.90
22568;DHT22;11450;50.818;4.382;2022-09-09T09:51:01;16.40;99.90
22568;DHT22;11450;50.818;4.382;2022-09-09T09:53:32;16.60;99.90
22568;DHT22;11450;50.818;4.382;2022-09-09T09:56:05;16.50;99.90
22568;DHT22;11450;50.818;4.382;2022-09-09T09:58:48;16.60;99.90
22568;DHT22;11450;50.818;4.382;2022-09-09T10:01:27;16.50;99.90
22568;DHT22;11450;50.818;4.382;2022-09-09T10:06:39;16.60;99.90
22568;DHT22;11450;50.818;4.382;2022-09-09T10:09:26;16.60;99.90
22568;DHT22;11450;50.818;4.382;2022-09-09T10:14:45;16.70;99.90
22568;DHT22;11450;50.818;4.382;2022-09-09T10:20:59;16.80;99.90
22568;DHT22;11450;50.818;4.382;2022-09-09T10:29:34;16.80;99.90
22568;DHT22;11450;50.818;4.382;2022-09-09T10:37:39;17.10;99.90
22568;DHT22;11450;50.818;4.382;2022-09-09T10:40:37;17.30;99.90
22568;DHT22;11450;50.818;4.382;2022-09-09T10:53:53;17.60;99.90
22568;DHT22;11450;50.818;4.382;2022-09-09T10:56:24;17.60;99.90
22568;DHT22;11450;50.818;4.382;2022-09-09T11:01:48;17.70;99.90
22568;DHT22;11450;50.818;4.382;2022-09-09T11:06:55;17.90;99.90
22568;DHT22;11450;50.818;4.382;2022-09-09T11:09:28;17.90;99.90
22568;DHT22;11450;50.818;4.382;2022-09-09T11:11:58;18.00;99.90
22568;DHT22;11450;50.818;4.382;2022-09-09T11:14:40;18.10;99.90
22568;DHT22;11450;50.818;4.382;2022-09-09T11:17:12;18.10;99.90
22568;DHT22;11450;50.818;4.382;2022-09-09T11:19:41;18.10;99.90
22568;DHT22;11450;50.818;4.382;2022-09-09T11:22:22;18.20;99.90
22568;DHT22;11450;50.818;4.382;2022-09-09T11:24:55;18.30;99.90
22568;DHT22;11450;50.818;4.382;2022-09-09T11:30:20;18.40;99.90
22568;DHT22;11450;50.818;4.382;2022-09-09T11:36:21;18.30;99.90
22568;DHT22;11450;50.818;4.382;2022-09-09T11:39:02;18.20;99.90
22568;DHT22;11450;50.818;4.382;2022-09-09T11:41:36;18.10;99.90
22568;DHT22;11450;50.818;4.382;2022-09-09T11:44:13;18.10;99.90
22568;DHT22;11450;50.818;4.382;2022-09-09T11:46:43;18.10;99.90
22568;DHT22;11450;50.818;4.382;2022-09-09T11:52:24;18.10;99.90
22568;DHT22;11450;50.818;4.382;2022-09-09T11:54:54;18.20;99.90
22568;DHT22;11450;50.818;4.382;2022-09-09T11:57:32;18.30;99.90
22568;DHT22;11450;50.818;4.382;2022-09-09T11:59:59;18.20;99.90
22568;DHT22;11450;50.818;4.382;2022-09-09T12:02:27;18.20;99.90
22568;DHT22;11450;50.818;4.382;2022-09-09T12:05:06;18.30;99.90
22568;DHT22;11450;50.818;4.382;2022-09-09T12:08:03;18.30;99.90
22568;DHT22;11450;50.818;4.382;2022-09-09T12:10:39;18.40;99.90
22568;DHT22;11450;50.818;4.382;2022-09-09T12:13:18;18.50;99.90
22568;DHT22;11450;50.818;4.382;2022-09-09T12:16:01;18.40;99.90
22568;DHT22;11450;50.818;4.382;2022-09-09T12:18:37;18.30;99.90
22568;DHT22;11450;50.818;4.382;2022-09-09T12:24:18;18.40;99.90
22568;DHT22;11450;50.818;4.382;2022-09-09T12:32:27;18.40;99.90
22568;DHT22;11450;50.818;4.382;2022-09-09T12:35:03;18.50;99.90
22568;DHT22;11450;50.818;4.382;2022-09-09T12:37:51;18.60;99.90
22568;DHT22;11450;50.818;4.382;2022-09-09T12:40:25;18.70;99.90
22568;DHT22;11450;50.818;4.382;2022-09-09T12:42:51;18.90;99.90
22568;DHT22;11450;50.818;4.382;2022-09-09T12:45:21;19.00;99.90
22568;DHT22;11450;50.818;4.382;2022-09-09T12:50:30;19.10;99.90
22568;DHT22;11450;50.818;4.382;2022-09-09T12:53:32;19.10;99.90
22568;DHT22;11450;50.818;4.382;2022-09-09T12:56:07;19.30;99.90
22568;DHT22;11450;50.818;4.382;2022-09-09T12:58:36;19.40;99.90
22568;DHT22;11450;50.818;4.382;2022-09-09T13:01:04;19.50;99.90
22568;DHT22;11450;50.818;4.382;2022-09-09T13:03:32;19.50;99.90
22568;DHT22;11450;50.818;4.382;2022-09-09T13:06:10;19.60;99.90
22568;DHT22;11450;50.818;4.382;2022-09-09T13:08:45;19.60;99.90
22568;DHT22;11450;50.818;4.382;2022-09-09T13:11:15;19.60;99.90
22568;DHT22;11450;50.818;4.382;2022-09-09T13:13:43;19.60;99.90
22568;DHT22;11450;50.818;4.382;2022-09-09T13:16:20;19.80;99.90
22568;DHT22;11450;50.818;4.382;2022-09-09T13:18:47;19.80;99.90
22568;DHT22;11450;50.818;4.382;2022-09-09T13:21:13;19.80;99.90
22568;DHT22;11450;50.818;4.382;2022-09-09T13:23:58;19.80;99.90
22568;DHT22;11450;50.818;4.382;2022-09-09T13:26:29;19.90;99.90
22568;DHT22;11450;50.818;4.382;2022-09-09T13:29:17;20.00;99.90
22568;DHT22;11450;50.818;4.382;2022-09-09T13:31:45;20.10;99.90
22568;DHT22;11450;50.818;4.382;2022-09-09T13:34:25;20.10;99.90
22568;DHT22;11450;50.818;4.382;2022-09-09T13:36:59;20.10;99.90
22568;DHT22;11450;50.818;4.382;2022-09-09T13:39:29;20.20;99.90
22568;DHT22;11450;50.818;4.382;2022-09-09T13:41:55;20.10;99.90
22568;DHT22;11450;50.818;4.382;2022-09-09T13:44:24;20.20;99.90
22568;DHT22;11450;50.818;4.382;2022-09-09T13:47:17;20.10;99.90
22568;DHT22;11450;50.818;4.382;2022-09-09T13:49:45;20.10;99.90
22568;DHT22;11450;50.818;4.382;2022-09-09T13:52:16;20.20;99.90
22568;DHT22;11450;50.818;4.382;2022-09-09T13:54:51;20.30;99.90
22568;DHT22;11450;50.818;4.382;2022-09-09T13:57:22;20.50;99.90
22568;DHT22;11450;50.818;4.382;2022-09-09T13:59:51;20.50;99.90
22568;DHT22;11450;50.818;4.382;2022-09-09T14:02:18;20.50;99.90
22568;DHT22;11450;50.818;4.382;2022-09-09T14:04:44;20.40;99.90
22568;DHT22;11450;50.818;4.382;2022-09-09T14:07:14;20.40;99.90
22568;DHT22;11450;50.818;4.382;2022-09-09T14:09:41;20.40;99.90
22568;DHT22;11450;50.818;4.382;2022-09-09T14:12:11;20.30;99.90
22568;DHT22;11450;50.818;4.382;2022-09-09T14:14:37;20.40;99.90
22568;DHT22;11450;50.818;4.382;2022-09-09T14:17:03;20.40;99.90
22568;DHT22;11450;50.818;4.382;2022-09-09T14:19:30;20.40;99.90
22568;DHT22;11450;50.818;4.382;2022-09-09T14:21:59;20.30;99.90
22568;DHT22;11450;50.818;4.382;2022-09-09T14:24:25;20.40;99.90
22568;DHT22;11450;50.818;4.382;2022-09-09T14:26:51;20.20;99.90
22568;DHT22;11450;50.818;4.382;2022-09-09T14:29:16;20.30;99.90
22568;DHT22;11450;50.818;4.382;2022-09-09T14:31:42;20.20;99.90
22568;DHT22;11450;50.818;4.382;2022-09-09T14:34:08;20.30;99.90
22568;DHT22;11450;50.818;4.382;2022-09-09T14:36:39;20.30;99.90
22568;DHT22;11450;50.818;4.382;2022-09-09T14:39:10;20.30;99.90
22568;DHT22;11450;50.818;4.382;2022-09-09T14:41:35;20.40;99.90
22568;DHT22;11450;50.818;4.382;2022-09-09T14:44:01;20.40;99.90
22568;DHT22;11450;50.818;4.382;2022-09-09T14:46:27;20.30;99.90
22568;DHT22;11450;50.818;4.382;2022-09-09T14:48:52;20.40;99.90
22568;DHT22;11450;50.818;4.382;2022-09-09T14:51:21;20.40;99.90
22568;DHT22;11450;50.818;4.382;2022-09-09T14:53:57;20.50;99.90
22568;DHT22;11450;50.818;4.382;2022-09-09T14:56:31;20.40;99.90
22568;DHT22;11450;50.818;4.382;2022-09-09T14:59:06;20.40;99.90
22568;DHT22;11450;50.818;4.382;2022-09-09T15:01:36;20.40;99.90
22568;DHT22;11450;50.818;4.382;2022-09-09T15:04:12;20.50;99.90
22568;DHT22;11450;50.818;4.382;2022-09-09T15:06:42;20.50;99.90
22568;DHT22;11450;50.818;4.382;2022-09-09T15:09:34;20.40;99.90
22568;DHT22;11450;50.818;4.382;2022-09-09T15:12:12;20.50;99.90
22568;DHT22;11450;50.818;4.382;2022-09-09T15:14:57;20.60;99.90
22568;DHT22;11450;50.818;4.382;2022-09-09T15:17:23;20.60;99.90
22568;DHT22;11450;50.818;4.382;2022-09-09T15:20:10;20.60;99.90
22568;DHT22;11450;50.818;4.382;2022-09-09T15:23:18;20.60;99.90
22568;DHT22;11450;50.818;4.382;2022-09-09T15:25:58;20.60;99.90
22568;DHT22;11450;50.818;4.382;2022-09-09T15:28:31;20.60;99.90
22568;DHT22;11450;50.818;4.382;2022-09-09T15:31:10;20.60;99.90
22568;DHT22;11450;50.818;4.382;2022-09-09T15:34:20;20.40;99.90
22568;DHT22;11450;50.818;4.382;2022-09-09T15:37:07;20.30;99.90
22568;DHT22;11450;50.818;4.382;2022-09-09T15:39:43;20.20;99.90
22568;DHT22;11450;50.818;4.382;2022-09-09T15:42:09;20.10;99.90
22568;DHT22;11450;50.818;4.382;2022-09-09T15:44:55;20.00;99.90
22568;DHT22;11450;50.818;4.382;2022-09-09T15:47:34;20.00;99.90
22568;DHT22;11450;50.818;4.382;2022-09-09T15:50:00;19.90;99.90
22568;DHT22;11450;50.818;4.382;2022-09-09T15:52:26;19.90;99.90
22568;DHT22;11450;50.818;4.382;2022-09-09T15:54:51;19.90;99.90
22568;DHT22;11450;50.818;4.382;2022-09-09T15:57:25;19.90;99.90
22568;DHT22;11450;50.818;4.382;2022-09-09T16:00:03;20.00;99.90
22568;DHT22;11450;50.818;4.382;2022-09-09T16:02:37;20.10;99.90
22568;DHT22;11450;50.818;4.382;2022-09-09T16:05:05;20.10;99.90
22568;DHT22;11450;50.818;4.382;2022-09-09T16:07:33;20.10;99.90
22568;DHT22;11450;50.818;4.382;2022-09-09T16:10:02;20.00;99.90
22568;DHT22;11450;50.818;4.382;2022-09-09T16:12:31;19.90;99.90
22568;DHT22;11450;50.818;4.382;2022-09-09T16:14:57;19.90;99.90
22568;DHT22;11450;50.818;4.382;2022-09-09T16:17:25;20.00;99.90
22568;DHT22;11450;50.818;4.382;2022-09-09T16:19:51;19.90;99.90
22568;DHT22;11450;50.818;4.382;2022-09-09T16:22:27;19.90;99.90
22568;DHT22;11450;50.818;4.382;2022-09-09T16:25:13;19.80;99.90
22568;DHT22;11450;50.818;4.382;2022-09-09T16:27:43;19.80;99.90
22568;DHT22;11450;50.818;4.382;2022-09-09T16:30:18;19.60;99.90
22568;DHT22;11450;50.818;4.382;2022-09-09T16:32:43;19.50;99.90
22568;DHT22;11450;50.818;4.382;2022-09-09T16:35:10;19.30;99.90
22568;DHT22;11450;50.818;4.382;2022-09-09T16:37:37;19.10;99.90
22568;DHT22;11450;50.818;4.382;2022-09-09T16:40:25;19.00;99.90
22568;DHT22;11450;50.818;4.382;2022-09-09T16:42:58;19.00;99.90
22568;DHT22;11450;50.818;4.382;2022-09-09T16:45:41;18.90;99.90
22568;DHT22;11450;50.818;4.382;2022-09-09T16:48:12;18.90;99.90
22568;DHT22;11450;50.818;4.382;2022-09-09T16:50:47;18.90;99.90
22568;DHT22;11450;50.818;4.382;2022-09-09T16:53:21;18.80;99.90
22568;DHT22;11450;50.818;4.382;2022-09-09T16:58:44;18.80;99.90
22568;DHT22;11450;50.818;4.382;2022-09-09T17:01:16;18.80;99.90
22568;DHT22;11450;50.818;4.382;2022-09-09T17:03:57;18.70;99.90
22568;DHT22;11450;50.818;4.382;2022-09-09T17:06:29;18.50;99.90
22568;DHT22;11450;50.818;4.382;2022-09-09T17:09:01;18.50;99.90
22568;DHT22;11450;50.818;4.382;2022-09-09T17:11:36;18.60;99.90
22568;DHT22;11450;50.818;4.382;2022-09-09T17:14:22;18.50;99.90
22568;DHT22;11450;50.818;4.382;2022-09-09T17:16:48;18.50;99.90
22568;DHT22;11450;50.818;4.382;2022-09-09T17:19:14;18.50;99.90
22568;DHT22;11450;50.818;4.382;2022-09-09T17:21:40;18.40;99.90
22568;DHT22;11450;50.818;4.382;2022-09-09T17:24:13;18.40;99.90
22568;DHT22;11450;50.818;4.382;2022-09-09T17:26:40;18.30;99.90
22568;DHT22;11450;50.818;4.382;2022-09-09T17:29:09;18.20;99.90
22568;DHT22;11450;50.818;4.382;2022-09-09T17:31:38;18.30;99.90
22568;DHT22;11450;50.818;4.382;2022-09-09T17:34:07;18.30;99.90
22568;DHT22;11450;50.818;4.382;2022-09-09T17:36:59;18.20;99.90
22568;DHT22;11450;50.818;4.382;2022-09-09T17:39:50;18.20;99.90
22568;DHT22;11450;50.818;4.382;2022-09-09T17:42:26;18.20;99.90
22568;DHT22;11450;50.818;4.382;2022-09-09T17:44:55;18.20;99.90
22568;DHT22;11450;50.818;4.382;2022-09-09T17:47:40;18.30;99.90
22568;DHT22;11450;50.818;4.382;2022-09-09T17:50:23;18.30;99.90